メインページ
METAR-TAF:

METAR-TAF

空港 :

ザグレブ, クロアチア

ザグレブ国際空港

緯度: 45-44N, 経度: 016-04E, 海抜: 106m

現時点の気象観測

当レポートは24分前の13:00(UTC)に作成
東/北東の風 5kt、北/北西から東/南東の間で変化する
気温 16°C
湿度 72%
気圧 1021 hPa
視程10km以上
高度2300ftの雲はほとんどない
高度3800ftの千切れ雲あり

METAR: LDZA 251300Z 07005KT 340V120 9999 FEW023 BKN038 16/11 Q1021 NOSIG

時間: 15:24 (13:24 UTC)

予報

当レポートは1時間59分前の11:25(UTC)に作成
予報は25日の 12時(UTC)から 26日の 12時(UTC)まで有効
北東の風 7kt
視程10km以上
高度3500ftの雲は散在している
26日の 01時(UTC)から 26日の 12時(UTC)まで一時的に
視程: 3000m
高度1000ftの千切れ雲あり

TAF: LDZA 251125Z 2512/2612 05007KT 9999 SCT035 TX17/2512Z TN12/2603Z TEMPO 2601/2612 3000 RA BKN010

4,000以上の空港の気象観測と天気予報(METAR報とTAF報)

利用可能な観測所は地図上に黄色い丸と赤い丸で示す。

丸の上にカーソルを重ねると観測所名を参照できる。

次にクリックすると気象観測と天気予報を参照できる。

マップの切り替え:黒色「×」印の緑ボタンをクリックして拡大、「-」印の緑ボタンをクリックして縮小、緑色の三角印をクリックして隣りの地図に切り替え


METAR-TAF: